Time;durP1;ratioP1;P1;durP2;ratioP2;P2;SDS_P1;SDS_P2;PMS_P1;PMS_P2;Temp;Humidity;BMP_temperature;BMP_pressure;BME280_temperature;BME280_humidity;BME280_pressure;Samples;Min_cycle;Max_cycle;Signal;HPM_P1;HPM_P2
2023/09/03 00:00:37;;;;;;;8.60;7.20;;;;;;;19.10;77.31;100238.96;105707;1257;72652;-73
2023/09/03 00:03:05;;;;;;;8.60;7.00;;;;;;;19.16;77.43;100237.33;105955;1253;60735;-75
2023/09/03 00:05:32;;;;;;;8.70;7.10;;;;;;;19.22;77.64;100239.53;106034;1253;60544;-73
2023/09/03 00:07:59;;;;;;;9.00;7.20;;;;;;;19.21;78.50;100234.98;106066;1257;71924;-75
2023/09/03 00:10:26;;;;;;;8.10;7.20;;;;;;;19.17;78.15;100234.88;105944;1253;70162;-71
2023/09/03 00:12:53;;;;;;;10.20;7.50;;;;;;;19.14;78.25;100236.22;105957;1253;71534;-74
2023/09/03 00:15:22;;;;;;;11.30;7.80;;;;;;;19.13;78.41;100234.38;105875;1253;60526;-76
2023/09/03 00:17:48;;;;;;;10.00;7.10;;;;;;;19.19;78.66;100232.38;105636;1255;417120;-73
2023/09/03 00:21:52;;;;;;;7.80;6.80;;;;;;;19.29;78.41;100228.16;102417;1293;602480;-75
2023/09/03 00:24:19;;;;;;;7.90;7.10;;;;;;;19.25;77.80;100223.98;106108;1263;59353;-72
2023/09/03 00:26:46;;;;;;;8.90;7.40;;;;;;;19.24;77.00;100221.79;107203;1256;60275;-75
2023/09/03 00:29:12;;;;;;;10.40;7.20;;;;;;;19.21;75.11;100219.27;107167;1258;70754;-75
2023/09/03 00:31:39;;;;;;;7.70;6.80;;;;;;;19.18;73.71;100222.03;106114;1256;68867;-75
2023/09/03 00:34:06;;;;;;;10.80;7.60;;;;;;;19.14;72.84;100219.06;106069;1254;195351;-75
2023/09/03 00:36:33;;;;;;;7.90;6.50;;;;;;;19.12;72.52;100221.55;106056;1253;60128;-75
2023/09/03 00:38:59;;;;;;;10.50;8.20;;;;;;;19.09;72.34;100219.91;105949;1253;59292;-75
2023/09/03 00:41:26;;;;;;;8.50;7.00;;;;;;;19.05;73.31;100217.85;106277;1253;59273;-77
2023/09/03 00:43:52;;;;;;;6.70;6.00;;;;;;;19.09;72.88;100215.92;106137;1257;59317;-76
2023/09/03 00:46:19;;;;;;;8.70;6.70;;;;;;;19.12;72.47;100213.80;106475;1253;74803;-78
2023/09/03 00:48:45;;;;;;;7.20;6.50;;;;;;;19.09;72.94;100208.76;106017;1254;60086;-76
2023/09/03 00:51:12;;;;;;;7.80;6.40;;;;;;;19.03;72.73;100207.29;106014;1256;59858;-76
2023/09/03 00:53:43;;;;;;;9.30;6.30;;;;;;;18.99;72.00;100207.30;105878;1261;72246;-76
2023/09/03 00:56:10;;;;;;;7.30;5.90;;;;;;;18.96;71.23;100203.00;106461;1255;70153;-75
2023/09/03 00:58:37;;;;;;;9.20;6.80;;;;;;;18.93;70.53;100202.27;106828;1253;72664;-75
2023/09/03 01:01:04;;;;;;;6.70;5.90;;;;;;;18.90;70.15;100199.45;107145;1253;60257;-76
2023/09/03 01:03:32;;;;;;;8.50;6.40;;;;;;;18.88;69.90;100200.70;107159;1253;59267;-77
2023/09/03 01:05:59;;;;;;;7.20;6.00;;;;;;;18.85;69.35;100196.61;106391;1259;72927;-76
2023/09/03 01:08:26;;;;;;;8.70;6.70;;;;;;;18.82;69.47;100193.52;106443;1257;69038;-77
2023/09/03 01:11:23;;;;;;;8.20;6.40;;;;;;;18.80;69.04;100191.48;106329;1254;71418;-77
2023/09/03 01:14:25;;;;;;;7.80;6.00;;;;;;;18.77;68.96;100193.37;106909;1257;60331;-77
2023/09/03 01:16:58;;;;;;;6.40;5.30;;;;;;;18.76;69.15;100192.21;106927;1254;59634;-78
2023/09/03 01:19:43;;;;;;;;;;;;;;;18.85;69.10;100194.08;106697;1253;71576;-80
2023/09/03 01:22:14;;;;;;;9.90;5.90;;;;;;;18.86;68.80;100195.78;107311;1254;68897;-78
2023/09/03 01:24:50;;;;;;;8.40;6.30;;;;;;;18.84;69.45;100193.22;107598;1253;72776;-77
2023/09/03 01:27:39;;;;;;;8.60;6.20;;;;;;;18.84;69.45;100192.61;107490;1254;60314;-78
2023/09/03 01:30:06;;;;;;;7.30;6.10;;;;;;;18.83;69.35;100195.17;108244;1253;59594;-80
2023/09/03 01:32:34;;;;;;;7.50;6.70;;;;;;;18.83;69.61;100190.20;107194;1257;72120;-78
2023/09/03 01:35:01;;;;;;;7.60;5.80;;;;;;;18.82;69.67;100189.54;107569;1257;70109;-79
2023/09/03 01:37:28;;;;;;;9.90;6.60;;;;;;;18.81;69.73;100187.90;107566;1256;70316;-79
2023/09/03 01:39:54;;;;;;;6.60;5.80;;;;;;;18.82;70.92;100189.05;106997;1254;61717;-79
2023/09/03 01:42:21;;;;;;;6.20;5.30;;;;;;;18.91;71.77;100190.30;106184;1254;60496;-77
2023/09/03 01:44:48;;;;;;;6.70;5.90;;;;;;;18.99;72.01;100188.82;106105;1256;72943;-79
2023/09/03 01:47:30;;;;;;;8.10;6.30;;;;;;;19.01;72.22;100184.76;106071;1254;59727;-78
2023/09/03 01:50:11;;;;;;;8.70;6.50;;;;;;;19.01;72.34;100192.05;106046;1253;72564;-79
2023/09/03 01:52:49;;;;;;;7.70;6.60;;;;;;;18.98;72.82;100189.33;106366;1253;59717;-82
2023/09/03 01:55:16;;;;;;;7.10;6.30;;;;;;;18.96;72.62;100190.77;105932;1254;60291;-79
2023/09/03 01:57:52;;;;;;;10.50;7.00;;;;;;;18.94;72.27;100189.80;106023;1256;74596;-77
2023/09/03 02:00:18;;;;;;;9.40;6.00;;;;;;;18.94;72.80;100190.13;105943;1258;68894;-75
2023/09/03 02:02:47;;;;;;;7.10;5.80;;;;;;;19.02;73.13;100186.83;105914;1257;72684;-79
2023/09/03 02:05:14;;;;;;;9.10;6.40;;;;;;;19.07;73.36;100186.31;105989;1254;59731;-81
2023/09/03 02:07:41;;;;;;;7.00;6.10;;;;;;;19.05;73.58;100185.56;106091;1253;59629;-80
2023/09/03 02:10:08;;;;;;;6.70;6.00;;;;;;;19.01;72.26;100183.52;105937;1257;73059;-79
2023/09/03 02:12:35;;;;;;;8.50;6.20;;;;;;;19.01;71.00;100184.34;106353;1258;70108;-80
2023/09/03 02:15:02;;;;;;;7.30;6.00;;;;;;;19.00;70.44;100184.92;107639;1253;72380;-80
2023/09/03 02:17:29;;;;;;;7.00;6.00;;;;;;;18.99;70.00;100185.44;108099;1252;59718;-79
2023/09/03 02:19:57;;;;;;;8.90;6.30;;;;;;;18.99;69.50;100184.02;106356;1253;59648;-81
2023/09/03 02:22:23;;;;;;;8.70;7.00;;;;;;;18.98;69.19;100188.20;106021;1254;71874;-82
2023/09/03 02:24:50;;;;;;;8.30;7.40;;;;;;;18.98;69.79;100190.32;106376;1253;69008;-80
2023/09/03 02:27:17;;;;;;;7.10;6.30;;;;;;;18.97;70.53;100194.06;106575;1253;71460;-81
2023/09/03 02:29:44;;;;;;;8.60;6.00;;;;;;;18.97;71.04;100194.59;106002;1253;59741;-81
2023/09/03 02:32:10;;;;;;;8.40;6.10;;;;;;;19.04;71.75;100193.35;105793;1254;60547;-80
2023/09/03 02:34:37;;;;;;;8.30;6.30;;;;;;;19.11;71.48;100186.34;105888;1253;73074;-80
2023/09/03 02:37:04;;;;;;;7.10;6.40;;;;;;;19.09;71.56;100183.36;106205;1253;70654;-81
2023/09/03 02:39:31;;;;;;;9.90;7.40;;;;;;;19.06;72.68;100181.92;106022;1253;72371;-80
2023/09/03 02:41:58;;;;;;;9.30;6.40;;;;;;;19.04;72.94;100185.66;106411;1253;59741;-81
2023/09/03 02:44:25;;;;;;;8.20;6.50;;;;;;;18.99;73.13;100185.38;106874;1253;60290;-77
2023/09/03 02:46:52;;;;;;;8.60;6.40;;;;;;;18.98;73.26;100188.48;108411;1252;59190;-79
2023/09/03 02:49:20;;;;;;;8.20;5.90;;;;;;;18.98;73.16;100186.27;108675;1252;68918;-78
2023/09/03 02:51:47;;;;;;;8.20;5.90;;;;;;;19.08;73.32;100183.23;108097;1256;71218;-82
2023/09/03 02:54:13;;;;;;;7.60;6.70;;;;;;;19.14;73.22;100184.30;107514;1253;59514;-79
2023/09/03 02:56:40;;;;;;;7.30;6.30;;;;;;;19.13;73.16;100183.21;107239;1252;59837;-80
2023/09/03 02:59:06;;;;;;;7.60;6.10;;;;;;;19.08;73.57;100183.86;106933;1254;71841;-79
2023/09/03 03:01:33;;;;;;;6.90;6.10;;;;;;;19.06;73.59;100180.51;105935;1252;70578;-80
2023/09/03 03:04:00;;;;;;;8.80;6.20;;;;;;;19.06;73.54;100186.69;106245;1255;72626;-81
2023/09/03 03:06:27;;;;;;;8.10;6.70;;;;;;;19.04;73.54;100189.92;106164;1254;60190;-80
2023/09/03 03:08:54;;;;;;;7.20;5.60;;;;;;;19.02;73.11;100193.33;106244;1253;60091;-79
2023/09/03 03:11:23;;;;;;;7.00;5.90;;;;;;;19.07;72.40;100194.61;106059;1256;73026;-78
2023/09/03 03:13:55;;;;;;;8.00;6.90;;;;;;;19.12;72.08;100192.95;105904;1253;70414;-75
2023/09/03 03:16:25;;;;;;;8.40;6.70;;;;;;;19.11;72.73;100188.86;105814;1253;71471;-75
2023/09/03 03:18:53;;;;;;;8.50;6.60;;;;;;;19.08;72.85;100186.60;105761;1253;59814;-75
2023/09/03 03:21:22;;;;;;;7.40;6.50;;;;;;;19.04;72.72;100182.35;106067;1256;60079;-76
2023/09/03 03:23:52;;;;;;;7.90;7.00;;;;;;;19.00;72.98;100183.48;105941;1253;72931;-75
2023/09/03 03:26:26;;;;;;;6.90;6.00;;;;;;;18.97;73.54;100190.65;106006;1257;70398;-75
2023/09/03 03:28:53;;;;;;;7.00;5.80;;;;;;;19.01;73.75;100189.19;106130;1254;72429;-73
2023/09/03 03:31:20;;;;;;;10.30;6.80;;;;;;;19.05;73.96;100187.81;107951;1251;60025;-74
2023/09/03 03:33:53;;;;;;;7.70;6.70;;;;;;;19.04;74.25;100184.34;109194;1253;58886;-77
2023/09/03 03:36:25;;;;;;;7.80;7.00;;;;;;;19.04;73.98;100189.84;107362;1254;71492;-78
2023/09/03 03:38:51;;;;;;;8.50;6.70;;;;;;;19.02;74.12;100188.23;106792;1253;59724;-77
2023/09/03 03:41:19;;;;;;;7.00;6.30;;;;;;;19.03;73.78;100192.42;105992;1256;60105;-79
2023/09/03 03:43:49;;;;;;;6.80;6.10;;;;;;;19.02;72.83;100185.00;106296;1253;60669;-77
2023/09/03 03:46:18;;;;;;;9.40;6.60;;;;;;;19.00;72.31;100185.84;106056;1253;60129;-81
2023/09/03 03:48:47;;;;;;;8.90;7.70;;;;;;;18.99;71.85;100188.04;105905;1253;72927;-77
2023/09/03 03:51:14;;;;;;;8.60;6.80;;;;;;;18.96;71.44;100189.17;106154;1254;70090;-77
2023/09/03 03:53:41;;;;;;;7.30;6.30;;;;;;;18.93;71.16;100190.62;106097;1258;72516;-78
2023/09/03 03:56:09;;;;;;;7.50;6.20;;;;;;;18.97;70.58;100187.38;106394;1253;60366;-75
2023/09/03 03:58:37;;;;;;;9.10;7.30;;;;;;;18.98;70.29;100185.55;106257;1251;60445;-73
2023/09/03 04:01:30;;;;;;;8.60;6.70;;;;;;;18.95;70.02;100185.40;106208;1254;71802;-72
2023/09/03 04:03:57;;;;;;;8.10;7.30;;;;;;;18.92;69.72;100187.23;105741;1257;67895;-74
2023/09/03 04:06:27;;;;;;;7.60;6.80;;;;;;;18.88;69.48;100190.92;106085;1257;72069;-75
2023/09/03 04:08:54;;;;;;;7.90;7.10;;;;;;;18.85;69.19;100185.64;106091;1253;60147;-75
2023/09/03 04:11:23;;;;;;;8.70;6.90;;;;;;;18.81;69.04;100190.04;106013;1253;60250;-74
2023/09/03 04:13:49;;;;;;;8.20;7.40;;;;;;;18.76;69.08;100187.13;105750;1258;72810;-75
2023/09/03 04:16:19;;;;;;;8.50;7.70;;;;;;;18.70;69.30;100185.20;106009;1256;69144;-74
2023/09/03 04:18:49;;;;;;;8.60;7.60;;;;;;;18.64;69.53;100187.32;105958;1256;72573;-71
2023/09/03 04:21:16;;;;;;;8.40;7.50;;;;;;;18.61;69.43;100187.61;105935;1253;60254;-75
2023/09/03 04:23:43;;;;;;;8.00;7.20;;;;;;;18.59;69.51;100185.83;106171;1253;60083;-76
2023/09/03 04:26:10;;;;;;;12.10;7.50;;;;;;;18.66;69.51;100182.60;105716;1253;71665;-76
2023/09/03 04:28:54;;;;;;;10.00;7.20;;;;;;;18.71;69.22;100181.41;105953;1256;70323;-75
2023/09/03 04:31:21;;;;;;;7.80;7.00;;;;;;;18.70;69.26;100184.03;105916;1256;70966;-73
2023/09/03 04:33:48;;;;;;;8.50;7.40;;;;;;;18.69;69.49;100185.70;106384;1253;60640;-74
2023/09/03 04:36:16;;;;;;;9.10;8.10;;;;;;;18.68;69.27;100185.20;106733;1256;60337;-74
2023/09/03 04:38:43;;;;;;;9.40;7.60;;;;;;;18.67;69.10;100185.98;106686;1253;73900;-75
2023/09/03 04:41:12;;;;;;;9.90;8.90;;;;;;;18.66;69.01;100183.84;106590;1253;70314;-76
2023/09/03 04:44:07;;;;;;;9.40;8.60;;;;;;;18.66;68.94;100184.39;106499;1253;72673;-75
2023/09/03 04:46:36;;;;;;;9.40;8.40;;;;;;;18.66;69.08;100185.66;105778;1253;60464;-75
2023/09/03 04:49:03;;;;;;;8.90;8.10;;;;;;;18.65;69.07;100183.98;105553;1253;60439;-72
2023/09/03 04:51:30;;;;;;;9.90;8.90;;;;;;;18.65;68.96;100186.85;105987;1257;73832;-74
2023/09/03 04:53:57;;;;;;;9.20;8.40;;;;;;;18.65;69.02;100187.23;105746;1253;70102;-77
2023/09/03 04:56:23;;;;;;;10.70;9.20;;;;;;;18.65;68.98;100187.73;105895;1256;72500;-74
2023/09/03 04:58:52;;;;;;;10.10;8.10;;;;;;;18.67;69.08;100186.90;106050;1254;61756;-76
2023/09/03 05:01:18;;;;;;;11.30;7.40;;;;;;;18.79;68.93;100187.75;106084;1257;60446;-76
2023/09/03 05:03:52;;;;;;;9.00;8.00;;;;;;;18.89;68.72;100189.85;106033;1253;73736;-75
2023/09/03 05:06:20;;;;;;;9.50;7.60;;;;;;;18.92;68.61;100192.41;106093;1255;69253;-75
2023/09/03 05:08:49;;;;;;;8.70;7.90;;;;;;;18.95;68.62;100192.35;107297;1253;71931;-76
2023/09/03 05:11:18;;;;;;;10.20;7.50;;;;;;;18.98;68.49;100194.96;107407;1253;60619;-76
2023/09/03 05:13:46;;;;;;;8.20;7.40;;;;;;;19.02;68.30;100190.46;106427;1253;60443;-75
2023/09/03 05:16:14;;;;;;;8.80;7.40;;;;;;;19.04;68.19;100187.58;106810;1256;73760;-76
2023/09/03 05:18:42;;;;;;;10.10;7.40;;;;;;;19.07;68.16;100182.63;106403;1259;68244;-75
2023/09/03 05:21:09;;;;;;;8.70;7.50;;;;;;;19.10;68.44;100181.49;106145;1256;71377;-72
2023/09/03 05:23:36;;;;;;;8.20;7.10;;;;;;;19.12;67.96;100180.66;106212;1252;60520;-74
2023/09/03 05:26:03;;;;;;;8.50;7.50;;;;;;;19.13;67.64;100175.97;105877;1253;60580;-73
2023/09/03 05:28:32;;;;;;;8.10;7.20;;;;;;;19.14;67.44;100174.60;106029;1259;73938;-76
2023/09/03 05:30:59;;;;;;;7.30;6.50;;;;;;;19.15;67.47;100178.99;105851;1253;70364;-75
2023/09/03 05:33:26;;;;;;;8.40;7.60;;;;;;;19.15;67.41;100181.06;105798;1253;72571;-73
2023/09/03 05:35:55;;;;;;;8.30;7.50;;;;;;;19.16;67.13;100183.84;105810;1253;60752;-73
2023/09/03 05:38:22;;;;;;;8.50;7.40;;;;;;;19.16;66.71;100178.94;105463;1255;60634;-73
2023/09/03 05:40:49;;;;;;;9.10;8.20;;;;;;;19.17;66.46;100181.27;105669;1256;73506;-72
2023/09/03 05:43:16;;;;;;;8.60;7.90;;;;;;;19.17;66.09;100181.39;105716;1253;70749;-73
2023/09/03 05:45:45;;;;;;;14.30;8.90;;;;;;;19.18;66.03;100177.68;105714;1253;73340;-73
2023/09/03 05:48:13;;;;;;;9.00;8.10;;;;;;;19.19;65.93;100179.84;105706;1253;60535;-76
2023/09/03 05:50:39;;;;;;;9.30;8.30;;;;;;;19.20;65.78;100175.89;105546;1253;60546;-74
2023/09/03 05:53:06;;;;;;;9.90;8.90;;;;;;;19.22;65.60;100178.08;105558;1258;74045;-74
2023/09/03 05:55:37;;;;;;;9.70;8.70;;;;;;;19.26;65.62;100175.88;105625;1253;69870;-78
2023/09/03 05:58:04;;;;;;;9.20;8.20;;;;;;;19.30;65.50;100176.85;105739;1251;73258;-75
2023/09/03 06:00:31;;;;;;;8.80;7.90;;;;;;;19.35;65.88;100180.23;105746;1251;60468;-75
2023/09/03 06:02:58;;;;;;;9.00;8.10;;;;;;;19.44;66.06;100184.98;105634;1253;60495;-75
2023/09/03 06:05:28;;;;;;;8.40;7.20;;;;;;;19.53;66.08;100184.60;105666;1257;74450;-74
2023/09/03 06:07:57;;;;;;;8.20;7.30;;;;;;;19.59;66.06;100187.25;105714;1255;70621;-75
2023/09/03 06:10:24;;;;;;;8.00;7.00;;;;;;;19.66;66.01;100187.10;105701;1253;72690;-74
2023/09/03 06:12:51;;;;;;;8.70;7.40;;;;;;;19.71;65.82;100183.77;105671;1256;60598;-75
2023/09/03 06:15:18;;;;;;;8.10;6.70;;;;;;;19.73;65.50;100185.21;105584;1254;60828;-76
2023/09/03 06:17:49;;;;;;;10.30;7.00;;;;;;;19.74;65.28;100189.19;106000;1258;73632;-74
2023/09/03 06:20:16;;;;;;;9.10;6.30;;;;;;;19.77;64.99;100186.09;106048;1254;70093;-75
2023/09/03 06:22:43;;;;;;;7.50;6.70;;;;;;;19.80;64.82;100182.02;106147;1253;73127;-74
2023/09/03 06:25:09;;;;;;;7.30;6.50;;;;;;;19.84;64.36;100180.29;106081;1256;60473;-75
2023/09/03 06:27:36;;;;;;;8.80;6.90;;;;;;;19.87;64.00;100180.44;105773;1254;60432;-75
2023/09/03 06:30:04;;;;;;;8.90;6.80;;;;;;;19.91;63.86;100181.16;105537;1258;74486;-75
2023/09/03 06:32:31;;;;;;;7.30;6.40;;;;;;;19.94;63.47;100179.27;105714;1253;70710;-74
2023/09/03 06:34:57;;;;;;;7.10;6.40;;;;;;;19.96;63.50;100183.56;105526;1253;73114;-73
2023/09/03 06:37:24;;;;;;;7.00;6.20;;;;;;;20.00;63.20;100182.11;105696;1254;60777;-75
2023/09/03 06:39:51;;;;;;;7.00;6.30;;;;;;;20.03;63.09;100184.34;105739;1253;60550;-73
2023/09/03 06:42:17;;;;;;;7.70;6.50;;;;;;;20.08;62.99;100188.11;105640;1254;73255;-72
2023/09/03 06:44:44;;;;;;;8.70;7.00;;;;;;;20.14;63.01;100184.95;105617;1253;70652;-73
2023/09/03 06:47:10;;;;;;;7.70;6.50;;;;;;;20.19;62.69;100181.93;105646;1253;60467;-72
2023/09/03 06:49:37;;;;;;;8.00;6.60;;;;;;;20.22;62.47;100181.93;105460;1258;60471;-73
2023/09/03 06:52:04;;;;;;;10.20;6.90;;;;;;;20.27;62.40;100179.04;105495;1253;60545;-74
2023/09/03 06:54:30;;;;;;;7.90;6.90;;;;;;;20.32;62.48;100179.52;105716;1256;74371;-74
2023/09/03 06:56:57;;;;;;;10.20;6.80;;;;;;;20.38;61.92;100177.98;105686;1257;69779;-73
2023/09/03 06:59:24;;;;;;;8.40;7.50;;;;;;;20.44;61.72;100179.20;105756;1257;72980;-73
2023/09/03 07:02:00;;;;;;;9.10;7.40;;;;;;;20.52;61.34;100181.88;105443;1253;60467;-73
2023/09/03 07:04:27;;;;;;;8.90;8.20;;;;;;;20.59;61.37;100182.56;105668;1257;60433;-74
2023/09/03 07:06:54;;;;;;;8.90;8.00;;;;;;;20.67;61.29;100180.97;105828;1257;74097;-74
2023/09/03 07:09:20;;;;;;;10.90;9.40;;;;;;;20.75;61.14;100177.52;106031;1257;70477;-74
2023/09/03 07:11:47;;;;;;;9.10;8.20;;;;;;;20.80;61.14;100177.42;107219;1255;73320;-73
2023/09/03 07:14:14;;;;;;;8.50;7.70;;;;;;;20.88;60.82;100176.55;107394;1253;60361;-74
2023/09/03 07:16:40;;;;;;;10.10;7.80;;;;;;;20.95;60.52;100173.41;107310;1253;60321;-73
2023/09/03 07:19:07;;;;;;;8.80;7.40;;;;;;;21.03;60.57;100178.77;106648;1253;74451;-73
2023/09/03 07:21:34;;;;;;;7.80;7.10;;;;;;;21.11;60.48;100177.09;106805;1254;70861;-72
2023/09/03 07:24:01;;;;;;;7.40;6.70;;;;;;;21.18;59.91;100178.51;106634;1256;73373;-73
2023/09/03 07:26:28;;;;;;;9.10;7.10;;;;;;;21.24;59.32;100172.11;107002;1255;60403;-74
2023/09/03 07:28:55;;;;;;;8.60;7.60;;;;;;;21.28;59.13;100173.05;106266;1257;60388;-74
2023/09/03 07:31:22;;;;;;;8.60;7.70;;;;;;;21.31;59.01;100171.30;106126;1255;74376;-74
2023/09/03 07:33:48;;;;;;;9.60;8.70;;;;;;;21.35;58.84;100168.27;107151;1252;70456;-73
2023/09/03 07:36:15;;;;;;;8.70;7.90;;;;;;;21.36;58.75;100172.91;107321;1257;70820;-73
2023/09/03 07:38:42;;;;;;;9.40;8.60;;;;;;;21.38;58.92;100174.59;106868;1254;60556;-74
2023/09/03 07:41:09;;;;;;;8.90;7.40;;;;;;;21.41;59.00;100176.73;106018;1256;60463;-75
2023/09/03 07:43:36;;;;;;;8.60;7.80;;;;;;;21.43;58.73;100174.15;105603;1256;74494;-74
2023/09/03 07:46:02;;;;;;;8.00;7.20;;;;;;;21.44;58.69;100172.83;105560;1254;70751;-73
2023/09/03 07:48:29;;;;;;;8.70;7.90;;;;;;;21.45;58.53;100172.98;105656;1254;72470;-74
2023/09/03 07:50:56;;;;;;;9.10;7.70;;;;;;;21.49;58.61;100171.69;105796;1256;60575;-74
2023/09/03 07:53:23;;;;;;;7.40;6.70;;;;;;;21.54;58.63;100174.77;105727;1257;60512;-72
2023/09/03 07:55:50;;;;;;;7.50;6.80;;;;;;;21.60;58.63;100176.27;105674;1259;73433;-74
2023/09/03 07:58:16;;;;;;;8.00;7.20;;;;;;;21.65;58.14;100177.69;105630;1253;69656;-74
2023/09/03 08:00:44;;;;;;;7.40;5.90;;;;;;;21.70;57.94;100174.96;105555;1254;73336;-74
2023/09/03 08:03:10;;;;;;;6.50;5.80;;;;;;;21.76;57.55;100173.74;105699;1254;60527;-76
2023/09/03 08:05:37;;;;;;;7.90;5.80;;;;;;;21.81;57.25;100173.12;105981;1254;60422;-74
2023/09/03 08:08:04;;;;;;;6.70;5.70;;;;;;;21.90;57.13;100173.19;105532;1257;60562;-72
2023/09/03 08:10:30;;;;;;;9.20;6.40;;;;;;;21.99;56.97;100173.30;105388;1258;70678;-72
2023/09/03 08:12:57;;;;;;;6.50;5.80;;;;;;;22.06;57.32;100171.80;105484;1254;73344;-74
2023/09/03 08:15:24;;;;;;;6.80;6.20;;;;;;;22.12;57.08;100174.54;105623;1252;60458;-75
2023/09/03 08:18:10;;;;;;;6.90;5.90;;;;;;;22.18;56.95;100175.61;105542;1257;60489;-72
2023/09/03 08:20:37;;;;;;;8.50;5.90;;;;;;;22.25;56.71;100172.52;105556;1255;74545;-76
2023/09/03 08:23:04;;;;;;;6.30;5.80;;;;;;;22.30;56.57;100175.36;105544;1253;70930;-74
2023/09/03 08:25:30;;;;;;;8.40;7.50;;;;;;;22.33;56.68;100170.14;105495;1257;72793;-72
2023/09/03 08:27:57;;;;;;;8.60;6.30;;;;;;;22.31;57.04;100169.48;105529;1257;60380;-73
2023/09/03 08:30:24;;;;;;;8.00;6.40;;;;;;;22.30;56.91;100167.94;105657;1257;60510;-75
2023/09/03 08:32:50;;;;;;;6.80;6.20;;;;;;;22.30;56.69;100164.91;105596;1256;74427;-73
2023/09/03 08:35:17;;;;;;;8.50;5.90;;;;;;;22.30;57.14;100165.73;105637;1255;70746;-73
2023/09/03 08:37:43;;;;;;;6.30;5.70;;;;;;;22.31;56.95;100170.41;105525;1254;72895;-73
2023/09/03 08:40:11;;;;;;;7.80;5.70;;;;;;;22.31;57.07;100167.92;105562;1254;60552;-73
2023/09/03 08:42:40;;;;;;;7.80;6.40;;;;;;;22.28;56.93;100168.48;105734;1251;60441;-73
2023/09/03 08:45:10;;;;;;;6.30;5.70;;;;;;;22.25;57.16;100167.79;105703;1256;74262;-72
2023/09/03 08:47:40;;;;;;;7.80;6.10;;;;;;;22.26;56.92;100161.04;105574;1254;69206;-73
2023/09/03 08:50:10;;;;;;;6.20;5.60;;;;;;;22.25;57.10;100162.02;105671;1256;72030;-72
2023/09/03 08:52:40;;;;;;;7.40;6.00;;;;;;;22.24;57.01;100159.08;105572;1254;60448;-72
2023/09/03 08:55:12;;;;;;;6.90;6.10;;;;;;;22.25;57.10;100160.95;105725;1254;60502;-72
2023/09/03 08:57:39;;;;;;;7.00;6.40;;;;;;;22.29;57.17;100161.64;105615;1258;74500;-72
2023/09/03 09:00:07;;;;;;;11.60;6.20;;;;;;;22.33;57.33;100161.31;105759;1254;70993;-72
2023/09/03 09:02:34;;;;;;;6.40;5.80;;;;;;;22.37;57.68;100162.59;105491;1253;72434;-72
2023/09/03 09:05:04;;;;;;;7.10;5.90;;;;;;;22.42;57.26;100157.77;105668;1254;60437;-72
2023/09/03 09:07:32;;;;;;;8.40;6.00;;;;;;;22.45;57.19;100156.01;105459;1254;60513;-72
2023/09/03 09:10:03;;;;;;;6.10;5.50;;;;;;;22.47;57.34;100159.47;105381;1259;73790;-70
2023/09/03 09:12:49;;;;;;;9.60;6.20;;;;;;;22.51;57.27;100161.98;105498;1254;70358;-70
2023/09/03 09:15:15;;;;;;;8.30;5.50;;;;;;;22.52;56.46;100160.22;105410;1257;74234;-72
2023/09/03 09:17:43;;;;;;;5.50;5.00;;;;;;;22.54;55.85;100163.73;105525;1254;60484;-72
2023/09/03 09:20:12;;;;;;;6.70;5.20;;;;;;;22.56;55.89;100160.86;105542;1258;60549;-72
2023/09/03 09:22:43;;;;;;;5.70;5.10;;;;;;;22.59;55.97;100164.87;105517;1255;72610;-70
2023/09/03 09:25:12;;;;;;;8.40;5.00;;;;;;;22.65;55.45;100162.23;105652;1259;70178;-71
2023/09/03 09:27:39;;;;;;;4.70;4.30;;;;;;;22.74;55.44;100161.39;105456;1258;72686;-72
2023/09/03 09:30:10;;;;;;;5.70;4.70;;;;;;;22.83;55.43;100161.33;105481;1255;60442;-72
2023/09/03 09:32:36;;;;;;;6.20;5.30;;;;;;;22.94;55.38;100161.60;105799;1257;60572;-74
2023/09/03 09:35:06;;;;;;;8.40;5.30;;;;;;;23.05;55.57;100166.02;105546;1256;74249;-71
2023/09/03 09:37:39;;;;;;;6.20;4.60;;;;;;;23.15;55.43;100160.34;105590;1262;70254;-71
2023/09/03 09:40:09;;;;;;;7.00;4.80;;;;;;;23.27;55.02;100158.98;105582;1257;72542;-70
2023/09/03 09:42:53;;;;;;;7.60;4.50;;;;;;;23.47;54.45;100155.41;105523;1259;60992;-68
2023/09/03 09:45:20;;;;;;;10.40;4.40;;;;;;;23.63;53.55;100151.94;105586;1258;60362;-69
2023/09/03 09:47:46;;;;;;;4.90;4.40;;;;;;;23.77;52.71;100146.77;105535;1257;74672;-68
2023/09/03 09:50:13;;;;;;;5.70;4.30;;;;;;;23.91;52.65;100150.92;105653;1259;70510;-69
2023/09/03 09:52:40;;;;;;;5.00;3.80;;;;;;;24.03;52.01;100151.26;105612;1256;73359;-70
2023/09/03 09:55:07;;;;;;;4.50;4.00;;;;;;;24.12;51.20;100147.56;105751;1253;61027;-69
2023/09/03 09:57:33;;;;;;;5.00;4.10;;;;;;;24.18;51.94;100147.28;105319;1257;60592;-70
2023/09/03 10:00:00;;;;;;;4.60;4.20;;;;;;;24.26;51.82;100148.38;105417;1256;73948;-68
2023/09/03 10:02:27;;;;;;;5.00;3.80;;;;;;;24.32;51.30;100143.53;105509;1260;70629;-69
2023/09/03 10:04:54;;;;;;;4.30;3.90;;;;;;;24.35;51.41;100145.95;105554;1255;73016;-68
2023/09/03 10:07:20;;;;;;;5.10;3.90;;;;;;;24.36;51.28;100140.09;107477;1254;60558;-69
2023/09/03 10:09:47;;;;;;;4.50;3.90;;;;;;;24.39;51.12;100147.46;105499;1257;60453;-68
2023/09/03 10:12:14;;;;;;;5.70;3.80;;;;;;;24.40;50.83;100148.90;105799;1257;74512;-67
2023/09/03 10:14:40;;;;;;;5.50;3.40;;;;;;;24.40;50.43;100149.50;105548;1256;70825;-68
2023/09/03 10:17:08;;;;;;;4.90;3.60;;;;;;;24.38;50.43;100151.70;105579;1256;73088;-70
2023/09/03 10:19:55;;;;;;;4.30;3.90;;;;;;;24.33;50.44;100147.57;105603;1254;60553;-69
2023/09/03 10:22:23;;;;;;;4.70;4.00;;;;;;;24.31;50.30;100151.01;105612;1257;60502;-69
2023/09/03 10:24:55;;;;;;;6.00;4.00;;;;;;;24.26;50.14;100150.42;105312;1258;74752;-68
2023/09/03 10:27:24;;;;;;;4.70;4.10;;;;;;;24.22;50.42;100147.48;105493;1254;70681;-69
2023/09/03 10:29:51;;;;;;;4.80;3.30;;;;;;;24.22;50.31;100146.20;105522;1258;71311;-68
2023/09/03 10:32:18;;;;;;;4.90;3.70;;;;;;;24.23;49.89;100140.40;105395;1258;60511;-68
2023/09/03 10:34:44;;;;;;;4.00;3.30;;;;;;;24.25;49.80;100137.71;105547;1258;60439;-68
2023/09/03 10:37:12;;;;;;;3.40;3.10;;;;;;;24.27;49.49;100133.30;105706;1257;74268;-68
2023/09/03 10:39:40;;;;;;;4.40;3.20;;;;;;;24.39;49.72;100133.95;105704;1254;70720;-69
2023/09/03 10:42:28;;;;;;;4.00;3.60;;;;;;;24.63;49.45;100130.50;105621;1254;72729;-69
2023/09/03 10:44:56;;;;;;;4.20;3.80;;;;;;;24.92;49.07;100132.77;105547;1257;60460;-68
2023/09/03 10:47:23;;;;;;;4.70;4.20;;;;;;;25.14;48.56;100128.66;105661;1257;61432;-67
2023/09/03 10:49:51;;;;;;;4.20;3.40;;;;;;;25.31;48.38;100133.77;105521;1258;74454;-68
2023/09/03 10:52:34;;;;;;;4.50;3.60;;;;;;;25.39;47.79;100133.27;105583;1254;70533;-68
2023/09/03 10:55:20;;;;;;;4.10;3.60;;;;;;;25.35;47.50;100137.51;105480;1255;73520;-69
2023/09/03 10:58:23;;;;;;;5.00;3.90;;;;;;;25.25;47.49;100135.77;105593;1257;60636;-68
2023/09/03 11:01:22;;;;;;;4.10;3.70;;;;;;;25.13;47.60;100137.96;105635;1255;60435;-68
2023/09/03 11:03:50;;;;;;;4.50;4.00;;;;;;;25.05;47.81;100134.33;105687;1257;74320;-68
2023/09/03 11:06:24;;;;;;;4.40;3.90;;;;;;;24.97;47.80;100133.27;105754;1254;69772;-68
2023/09/03 11:09:08;;;;;;;4.60;3.90;;;;;;;24.88;47.58;100135.33;105619;1258;73251;-68
2023/09/03 11:11:35;;;;;;;5.00;4.00;;;;;;;24.84;47.87;100130.02;105629;1253;61964;-68
2023/09/03 11:14:02;;;;;;;7.30;4.30;;;;;;;24.86;48.02;100124.16;105253;1254;60546;-69
2023/09/03 11:16:34;;;;;;;5.80;3.80;;;;;;;24.87;48.04;100127.11;105556;1257;74260;-68
2023/09/03 11:19:07;;;;;;;5.60;4.10;;;;;;;24.86;48.18;100123.90;105599;1257;69467;-68
2023/09/03 11:21:35;;;;;;;5.60;4.00;;;;;;;24.83;47.84;100120.65;105472;1260;72705;-68
2023/09/03 11:24:03;;;;;;;5.40;3.70;;;;;;;24.74;48.09;100120.48;105464;1255;60507;-69
2023/09/03 11:26:30;;;;;;;4.00;3.40;;;;;;;24.64;48.28;100116.29;105443;1254;60543;-67